Time;durP1;ratioP1;P1;durP2;ratioP2;P2;SDS_P1;SDS_P2;PMS_P1;PMS_P2;Temp;Humidity;BMP_temperature;BMP_pressure;BME280_temperature;BME280_humidity;BME280_pressure;Samples;Min_cycle;Max_cycle;Signal;HPM_P1;HPM_P2
2023/09/22 00:00:03;;;;;;;0.45;0.40;;;13.40;99.90;;;;;;5131561;27;20027;-59
2023/09/22 00:02:28;;;;;;;1.75;0.52;;;13.10;99.90;;;;;;5131442;27;20076;-55
2023/09/22 00:04:54;;;;;;;6.88;1.73;;;13.30;99.90;;;;;;5131343;27;20031;-51
2023/09/22 00:07:20;;;;;;;1.55;0.57;;;12.50;99.90;;;;;;5131597;27;20026;-58
2023/09/22 00:09:46;;;;;;;1.23;0.50;;;;;;;;;;5131349;27;20072;-46
2023/09/22 00:12:12;;;;;;;0.40;0.40;;;;;;;;;;5131285;27;20548;-59
2023/09/22 00:14:37;;;;;;;0.30;0.30;;;13.40;99.90;;;;;;5131082;27;20059;-58
2023/09/22 00:17:03;;;;;;;0.63;0.40;;;13.80;99.90;;;;;;5131358;27;20069;-45
2023/09/22 00:19:29;;;;;;;0.98;0.20;;;;;;;;;;5131366;27;20054;-48
2023/09/22 00:21:55;;;;;;;0.30;0.30;;;;;;;;;;5131608;27;20019;-60
2023/09/22 00:24:22;;;;;;;1.08;0.40;;;;;;;;;;5124978;27;20019;-56
2023/09/22 00:26:48;;;;;;;1.15;0.47;;;;;;;;;;5130971;27;20581;-46
2023/09/22 00:29:13;;;;;;;1.67;0.50;;;13.10;99.90;;;;;;5131213;27;20031;-49
2023/09/22 00:31:39;;;;;;;1.83;0.43;;;10.10;99.90;;;;;;5130470;27;20075;-53
2023/09/22 00:34:04;;;;;;;0.30;0.30;;;14.20;99.90;;;;;;5131241;27;20027;-54
2023/09/22 00:36:32;;;;;;;0.90;0.50;;;;;;;;;;5130733;27;20061;-49
2023/09/22 00:38:58;;;;;;;0.25;0.25;;;;;;;;;;5130941;27;20105;-56
2023/09/22 00:41:24;;;;;;;3.13;0.90;;;;;;;;;;5131140;27;20109;-52
2023/09/22 00:43:50;;;;;;;0.45;0.38;;;13.20;99.90;;;;;;5130826;27;20019;-59
2023/09/22 00:46:22;;;;;;;0.28;0.28;;;12.80;99.90;;;;;;5128134;27;20025;-52
2023/09/22 00:48:48;;;;;;;3.25;0.50;;;11.60;99.90;;;;;;5127926;27;20049;-48
2023/09/22 00:51:15;;;;;;;1.58;0.30;;;13.20;99.90;;;;;;5116331;27;20379;-59
2023/09/22 00:53:41;;;;;;;0.80;0.40;;;;;;;;;;5130475;27;20019;-44
2023/09/22 00:56:07;;;;;;;0.77;0.50;;;11.50;99.90;;;;;;5130446;27;20110;-56
2023/09/22 00:58:34;;;;;;;1.17;0.50;;;13.20;99.90;;;;;;5130468;27;20091;-55
2023/09/22 01:01:00;;;;;;;1.20;0.40;;;;;;;;;;5130658;27;20091;-45
2023/09/22 01:03:25;;;;;;;2.58;0.50;;;13.20;99.90;;;;;;5130563;27;20019;-56
2023/09/22 01:05:51;;;;;;;0.80;0.38;;;;;;;;;;5130826;27;20015;-56
2023/09/22 01:08:18;;;;;;;1.27;1.00;;;13.30;99.90;;;;;;5130622;27;20435;-52
2023/09/22 01:10:44;;;;;;;0.30;0.30;;;;;;;;;;5130684;28;20446;-58
2023/09/22 01:13:10;;;;;;;0.30;0.30;;;;;;;;;;5130341;28;20098;-50
2023/09/22 01:15:40;;;;;;;0.40;0.40;;;13.40;99.90;;;;;;5130595;27;20039;-54
2023/09/22 01:18:07;;;;;;;0.52;0.50;;;13.20;99.90;;;;;;5130234;28;20118;-57
2023/09/22 01:20:39;;;;;;;1.02;0.40;;;13.20;99.90;;;;;;5130661;27;20070;-53
2023/09/22 01:23:05;;;;;;;2.47;0.40;;;13.40;99.90;;;;;;5130365;28;20027;-53
2023/09/22 01:25:31;;;;;;;1.65;0.55;;;;;;;;;;5130560;27;20133;-48
2023/09/22 01:27:57;;;;;;;0.95;0.30;;;12.00;99.90;;;;;;5130307;28;20027;-57
2023/09/22 01:30:23;;;;;;;6.38;0.60;;;;;;;;;;5130379;27;20054;-46
2023/09/22 01:32:48;;;;;;;1.13;0.45;;;13.20;99.90;;;;;;5130219;27;20687;-53
2023/09/22 01:35:14;;;;;;;1.30;0.60;;;;;;;;;;5130220;28;20019;-51
2023/09/22 01:37:51;;;;;;;0.43;0.40;;;13.20;99.90;;;;;;5130692;28;20494;-51
2023/09/22 01:40:17;;;;;;;0.40;0.40;;;12.70;99.90;;;;;;5130046;28;20437;-55
2023/09/22 01:42:43;;;;;;;1.55;0.45;;;14.40;99.90;;;;;;5112613;27;20042;-51
2023/09/22 01:45:10;;;;;;;0.40;0.40;;;10.60;99.90;;;;;;5134083;27;20020;-56
2023/09/22 01:47:36;;;;;;;0.25;0.25;;;12.60;99.90;;;;;;5134174;27;20050;-57
2023/09/22 01:50:02;;;;;;;0.60;0.30;;;11.20;99.90;;;;;;5124540;27;20102;-48
2023/09/22 01:52:28;;;;;;;0.82;0.40;;;13.70;99.90;;;;;;5129489;27;20344;-55
2023/09/22 01:54:54;;;;;;;0.70;0.40;;;12.90;99.90;;;;;;5134322;27;20094;-51
2023/09/22 01:57:20;;;;;;;2.22;0.50;;;10.50;99.90;;;;;;5134174;27;20043;-51
2023/09/22 01:59:45;;;;;;;0.65;0.30;;;13.00;99.90;;;;;;5115576;27;20455;-53
2023/09/22 02:02:11;;;;;;;0.85;0.40;;;12.50;99.90;;;;;;5134073;27;20027;-56
2023/09/22 02:04:36;;;;;;;0.40;0.35;;;9.60;99.90;;;;;;5134041;27;20157;-45
2023/09/22 02:07:03;;;;;;;1.15;0.50;;;13.60;99.90;;;;;;5133999;27;20535;-57
2023/09/22 02:09:28;;;;;;;0.38;0.30;;;12.80;99.90;;;;;;5133895;27;20019;-49
2023/09/22 02:11:54;;;;;;;0.45;0.40;;;;;;;;;;5133961;27;20510;-56
2023/09/22 02:14:20;;;;;;;2.38;0.68;;;11.40;99.90;;;;;;5133541;27;20025;-60
2023/09/22 02:16:46;;;;;;;0.63;0.40;;;;;;;;;;5133784;27;20038;-54
2023/09/22 02:19:12;;;;;;;0.65;0.35;;;9.40;99.90;;;;;;5133851;27;20027;-51
2023/09/22 02:21:39;;;;;;;0.40;0.40;;;;;;;;;;5133740;27;20506;-52
2023/09/22 02:24:05;;;;;;;0.47;0.30;;;9.20;99.90;;;;;;5133710;27;20067;-48
2023/09/22 02:26:31;;;;;;;1.27;0.30;;;12.60;99.90;;;;;;5133296;27;20508;-51
2023/09/22 02:28:56;;;;;;;0.75;0.47;;;9.70;99.90;;;;;;5133389;27;20027;-46
2023/09/22 02:31:23;;;;;;;0.52;0.50;;;11.30;99.90;;;;;;5133846;27;20031;-56
2023/09/22 02:33:49;;;;;;;0.45;0.30;;;12.50;99.90;;;;;;5133517;27;20031;-53
2023/09/22 02:36:18;;;;;;;2.38;0.50;;;;;;;;;;5133410;27;20084;-44
2023/09/22 02:38:43;;;;;;;4.75;0.65;;;12.00;99.90;;;;;;5132732;27;20015;-52
2023/09/22 02:41:11;;;;;;;0.80;0.65;;;9.20;99.90;;;;;;5133617;27;20027;-55
2023/09/22 02:43:38;;;;;;;1.27;0.73;;;;;;;;;;5132895;27;20479;-45
2023/09/22 02:46:04;;;;;;;0.82;0.55;;;;;;;;;;5133218;27;20113;-55
2023/09/22 02:48:30;;;;;;;3.17;0.55;;;13.60;99.90;;;;;;5133202;27;20583;-56
2023/09/22 02:50:56;;;;;;;0.68;0.40;;;;;;;;;;5118920;27;20149;-54
2023/09/22 02:53:22;;;;;;;0.50;0.32;;;;;;;;;;5132807;27;20384;-55
2023/09/22 02:55:47;;;;;;;1.83;0.52;;;13.10;99.90;;;;;;5131708;27;20034;-54
2023/09/22 02:58:14;;;;;;;1.05;0.52;;;;;;;;;;5132935;27;20026;-45
2023/09/22 03:00:44;;;;;;;0.45;0.40;;;11.10;99.90;;;;;;5132740;27;20485;-47
2023/09/22 03:03:10;;;;;;;5.57;0.85;;;;;;;;;;5132996;27;20019;-56
2023/09/22 03:05:36;;;;;;;0.60;0.50;;;9.10;99.90;;;;;;5132784;27;20383;-51
2023/09/22 03:08:04;;;;;;;0.50;0.35;;;12.00;99.90;;;;;;5119357;27;20028;-45
2023/09/22 03:10:30;;;;;;;0.47;0.47;;;12.10;99.90;;;;;;5112712;27;20026;-56
2023/09/22 03:12:56;;;;;;;0.55;0.40;;;9.10;99.90;;;;;;5117830;27;20140;-58
2023/09/22 03:15:21;;;;;;;0.55;0.38;;;9.20;99.90;;;;;;5129968;27;20056;-51
2023/09/22 03:17:47;;;;;;;0.35;0.35;;;8.90;99.90;;;;;;5120445;27;20070;-57
2023/09/22 03:20:13;;;;;;;1.58;0.35;;;13.20;99.90;;;;;;5132202;27;20019;-54
2023/09/22 03:22:39;;;;;;;0.40;0.40;;;10.90;99.90;;;;;;5131919;27;20027;-50
2023/09/22 03:25:05;;;;;;;0.75;0.30;;;9.40;99.90;;;;;;5119555;27;20119;-52
2023/09/22 03:27:34;;;;;;;0.30;0.30;;;10.80;99.90;;;;;;5130423;27;20367;-55
2023/09/22 03:30:02;;;;;;;0.45;0.45;;;11.30;99.90;;;;;;5132423;27;20034;-53
2023/09/22 03:32:29;;;;;;;0.40;0.30;;;11.10;99.90;;;;;;5131925;27;20023;-42
2023/09/22 03:34:57;;;;;;;0.30;0.30;;;10.70;99.90;;;;;;5132279;27;20019;-46
2023/09/22 03:37:27;;;;;;;0.30;0.30;;;10.30;99.90;;;;;;5131587;27;20448;-47
2023/09/22 03:39:54;;;;;;;0.60;0.40;;;9.60;99.90;;;;;;5132030;27;20047;-52
2023/09/22 03:42:19;;;;;;;0.52;0.40;;;8.90;99.90;;;;;;5117922;27;20107;-49
2023/09/22 03:44:45;;;;;;;0.30;0.30;;;9.50;99.90;;;;;;5131346;27;20090;-43
2023/09/22 03:47:10;;;;;;;0.80;0.32;;;10.30;99.90;;;;;;5131818;27;20026;-54
2023/09/22 03:49:36;;;;;;;1.08;0.30;;;;;;;;;;5131977;27;20015;-51
2023/09/22 03:52:02;;;;;;;0.45;0.30;;;11.90;99.90;;;;;;5132002;27;20482;-51
2023/09/22 03:54:28;;;;;;;0.20;0.20;;;;;;;;;;5131742;27;20031;-43
2023/09/22 03:56:54;;;;;;;1.08;0.47;;;;;;;;;;5131467;27;20120;-53
2023/09/22 03:59:20;;;;;;;0.30;0.30;;;9.40;99.90;;;;;;5131242;27;20023;-54
2023/09/22 04:01:45;;;;;;;0.25;0.25;;;10.50;99.90;;;;;;5131647;27;20031;-56
2023/09/22 04:04:11;;;;;;;0.20;0.20;;;11.90;99.90;;;;;;5131391;27;20444;-52
2023/09/22 04:06:36;;;;;;;0.28;0.28;;;9.50;99.90;;;;;;5130933;27;20035;-53
2023/09/22 04:09:02;;;;;;;0.20;0.20;;;8.70;99.90;;;;;;5131420;27;20038;-50
2023/09/22 04:11:28;;;;;;;0.30;0.30;;;;;;;;;;5130977;27;20050;-54
2023/09/22 04:13:54;;;;;;;0.28;0.28;;;;;;;;;;5131286;27;20356;-49
2023/09/22 04:16:20;;;;;;;0.20;0.20;;;9.60;99.90;;;;;;5118226;27;20055;-51
2023/09/22 04:18:46;;;;;;;0.22;0.22;;;;;;;;;;5129742;27;20105;-56
2023/09/22 04:21:12;;;;;;;0.30;0.30;;;10.20;99.90;;;;;;5112748;27;20054;-58
2023/09/22 04:23:45;;;;;;;0.22;0.22;;;11.40;99.90;;;;;;5131283;27;20054;-52
2023/09/22 04:26:11;;;;;;;0.40;0.32;;;8.90;99.90;;;;;;5130845;27;20035;-54
2023/09/22 04:28:36;;;;;;;0.32;0.25;;;11.40;99.90;;;;;;5131178;27;20088;-54
2023/09/22 04:31:03;;;;;;;0.20;0.20;;;11.10;99.90;;;;;;5131591;27;20030;-56
2023/09/22 04:33:28;;;;;;;0.30;0.30;;;9.20;99.90;;;;;;5131405;27;20023;-46
2023/09/22 04:35:54;;;;;;;0.30;0.30;;;8.50;99.90;;;;;;5131139;27;20023;-56
2023/09/22 04:38:20;;;;;;;1.48;0.25;;;;;;;;;;5131232;27;20376;-45
2023/09/22 04:40:47;;;;;;;0.50;0.32;;;8.60;99.90;;;;;;5131046;27;20067;-55
2023/09/22 04:43:13;;;;;;;0.43;0.40;;;;;;;;;;5131016;27;20494;-54
2023/09/22 04:45:45;;;;;;;0.50;0.30;;;12.10;99.90;;;;;;5130936;27;20404;-42
2023/09/22 04:48:11;;;;;;;0.45;0.38;;;11.20;99.90;;;;;;5130860;27;20035;-53
2023/09/22 04:50:38;;;;;;;0.55;0.30;;;10.20;99.90;;;;;;5130888;27;20080;-49
2023/09/22 04:53:04;;;;;;;0.40;0.30;;;11.90;99.90;;;;;;5130569;27;20031;-53
2023/09/22 04:55:35;;;;;;;1.98;0.57;;;10.60;99.90;;;;;;5130594;27;20023;-55
2023/09/22 04:58:02;;;;;;;0.75;0.60;;;8.50;99.90;;;;;;5130940;27;20023;-50
2023/09/22 05:00:27;;;;;;;0.88;0.50;;;8.70;99.90;;;;;;5130796;27;20046;-53
2023/09/22 05:02:53;;;;;;;1.08;0.63;;;11.40;99.90;;;;;;5130787;27;20059;-56
2023/09/22 05:05:19;;;;;;;0.20;0.20;;;11.50;99.90;;;;;;5131270;27;20097;-55
2023/09/22 05:07:45;;;;;;;0.85;0.43;;;10.80;99.90;;;;;;5131107;27;20039;-57
2023/09/22 05:10:11;;;;;;;0.50;0.38;;;9.20;99.90;;;;;;5130748;27;20019;-55
2023/09/22 05:12:37;;;;;;;0.43;0.30;;;10.30;99.90;;;;;;5124390;27;20502;-43
2023/09/22 05:15:04;;;;;;;0.55;0.50;;;10.40;99.90;;;;;;5110242;28;20099;-48
2023/09/22 05:17:30;;;;;;;0.93;0.50;;;10.50;99.90;;;;;;5119139;27;20092;-57
2023/09/22 05:19:56;;;;;;;0.73;0.50;;;10.50;99.90;;;;;;5135061;27;20544;-57
2023/09/22 05:22:22;;;;;;;0.70;0.40;;;10.50;99.90;;;;;;5134816;27;20152;-56
2023/09/22 05:24:48;;;;;;;0.80;0.60;;;10.50;99.90;;;;;;5134909;27;20023;-58
2023/09/22 05:27:15;;;;;;;0.38;0.32;;;10.50;99.90;;;;;;5134758;27;20498;-51
2023/09/22 05:29:41;;;;;;;0.20;0.20;;;10.50;99.90;;;;;;5134831;27;20027;-51
2023/09/22 05:32:08;;;;;;;0.22;0.22;;;10.30;99.90;;;;;;5134913;27;20024;-54
2023/09/22 05:34:33;;;;;;;0.20;0.20;;;10.20;99.90;;;;;;5134698;27;20745;-55
2023/09/22 05:37:00;;;;;;;0.57;0.50;;;10.10;99.90;;;;;;5134457;27;20031;-51
2023/09/22 05:39:26;;;;;;;0.30;0.30;;;10.00;99.90;;;;;;5134465;27;20384;-54
2023/09/22 05:41:52;;;;;;;1.98;0.45;;;10.00;99.90;;;;;;5134654;27;20068;-59
2023/09/22 05:44:18;;;;;;;0.55;0.30;;;10.00;99.90;;;;;;5133966;27;20046;-54
2023/09/22 05:46:51;;;;;;;0.88;0.50;;;10.00;99.90;;;;;;5134829;27;20377;-58
2023/09/22 05:49:16;;;;;;;0.90;0.50;;;10.00;99.90;;;;;;5114260;27;20051;-57
2023/09/22 05:51:42;;;;;;;1.02;0.60;;;10.00;99.90;;;;;;5124028;27;20085;-51
2023/09/22 05:54:08;;;;;;;1.38;0.40;;;10.00;99.90;;;;;;5134409;27;20035;-57
2023/09/22 05:56:40;;;;;;;0.40;0.40;;;10.00;99.90;;;;;;5134358;27;20027;-52
2023/09/22 05:59:06;;;;;;;1.48;0.35;;;10.00;99.90;;;;;;5134272;27;20032;-48
2023/09/22 06:01:36;;;;;;;0.43;0.40;;;10.00;99.90;;;;;;5133964;27;20072;-58
2023/09/22 06:04:04;;;;;;;;;;;9.90;99.90;;;;;;5117151;27;20023;-45
2023/09/22 06:06:32;;;;;;;0.50;0.50;;;9.90;99.90;;;;;;5134197;27;19903;-45
2023/09/22 06:08:58;;;;;;;0.57;0.50;;;10.00;99.90;;;;;;5134466;27;20110;-51
2023/09/22 06:11:23;;;;;;;0.88;0.60;;;10.00;99.90;;;;;;5114762;27;20476;-51
2023/09/22 06:13:49;;;;;;;1.35;0.80;;;10.10;99.90;;;;;;5134470;27;20023;-50
2023/09/22 06:16:15;;;;;;;2.85;1.27;;;10.10;99.90;;;;;;5121238;27;20056;-53
2023/09/22 06:18:40;;;;;;;1.40;0.75;;;10.10;99.90;;;;;;5131549;27;20141;-41
2023/09/22 06:21:06;;;;;;;3.05;1.00;;;10.20;99.90;;;;;;5133917;27;20034;-42
2023/09/22 06:23:32;;;;;;;1.60;0.80;;;10.30;99.90;;;;;;5133487;27;20146;-42
2023/09/22 06:26:02;;;;;;;1.27;0.88;;;10.30;99.90;;;;;;5133652;27;20471;-42
2023/09/22 06:28:29;;;;;;;1.90;0.75;;;10.30;99.90;;;;;;5133449;27;20038;-43
2023/09/22 06:30:59;;;;;;;2.55;1.00;;;10.40;99.90;;;;;;5133389;27;20023;-51
2023/09/22 06:33:24;;;;;;;;;;;10.40;99.90;;;;;;5134475;27;20538;-53
2023/09/22 06:35:56;;;;;;;2.05;1.30;;;10.50;99.90;;;;;;5133463;27;20006;-50
2023/09/22 06:38:22;;;;;;;3.38;1.02;;;10.50;99.90;;;;;;5133282;27;20506;-52
2023/09/22 06:40:48;;;;;;;3.83;1.52;;;10.60;99.90;;;;;;5133415;27;20090;-58
2023/09/22 06:43:13;;;;;;;3.47;1.40;;;10.60;99.90;;;;;;5133444;27;20461;-55
2023/09/22 06:45:40;;;;;;;1.80;1.08;;;10.60;99.90;;;;;;5097908;27;20019;-55
2023/09/22 06:48:06;;;;;;;2.78;1.50;;;10.60;99.90;;;;;;5122472;27;20027;-54
2023/09/22 06:50:38;;;;;;;2.22;1.15;;;10.70;99.90;;;;;;5112013;28;20463;-53
2023/09/22 06:53:04;;;;;;;2.85;1.33;;;10.70;99.90;;;;;;5112819;28;20032;-55
2023/09/22 06:55:32;;;;;;;2.20;1.42;;;10.80;99.90;;;;;;5112868;28;20050;-42
2023/09/22 06:57:59;;;;;;;2.65;1.48;;;10.80;99.90;;;;;;5112487;28;20032;-55
2023/09/22 07:00:28;;;;;;;1.92;1.17;;;10.90;99.90;;;;;;5112564;28;20053;-52
2023/09/22 07:02:54;;;;;;;2.42;1.60;;;10.90;99.90;;;;;;5094010;28;20020;-51
2023/09/22 07:05:20;;;;;;;3.42;1.50;;;10.90;99.90;;;;;;5112445;28;20081;-55
2023/09/22 07:07:46;;;;;;;2.38;1.52;;;11.00;99.90;;;;;;5112323;28;20031;-54
2023/09/22 07:10:13;;;;;;;3.03;1.70;;;11.00;99.90;;;;;;5094273;28;20027;-54
2023/09/22 07:12:39;;;;;;;2.35;1.38;;;11.00;99.90;;;;;;5111590;28;20075;-45
2023/09/22 07:15:06;;;;;;;3.03;1.73;;;11.10;99.90;;;;;;5112293;28;20026;-47
2023/09/22 07:17:33;;;;;;;4.20;1.88;;;11.20;99.90;;;;;;5120768;27;20031;-47
2023/09/22 07:20:00;;;;;;;3.55;1.85;;;11.20;99.90;;;;;;5132548;27;20216;-53
2023/09/22 07:22:26;;;;;;;3.78;2.20;;;11.20;99.90;;;;;;5132570;27;20030;-56
2023/09/22 07:24:52;;;;;;;4.60;2.28;;;11.30;99.90;;;;;;5132192;27;20102;-46
2023/09/22 07:27:18;;;;;;;3.95;2.20;;;11.20;99.90;;;;;;5132202;27;20034;-50
2023/09/22 07:29:43;;;;;;;4.43;1.98;;;11.20;99.90;;;;;;5132427;27;20558;-56
2023/09/22 07:32:09;;;;;;;4.82;2.35;;;11.30;99.90;;;;;;5132395;27;20027;-55
2023/09/22 07:34:35;;;;;;;3.97;2.03;;;11.30;99.90;;;;;;5132396;27;20509;-48
2023/09/22 07:37:01;;;;;;;2.97;1.92;;;11.40;99.90;;;;;;5132216;27;20034;-48
2023/09/22 07:39:26;;;;;;;3.30;2.10;;;11.40;99.90;;;;;;5120874;27;20071;-51
2023/09/22 07:41:52;;;;;;;3.53;2.15;;;11.50;99.90;;;;;;5112161;27;20444;-52
2023/09/22 07:44:21;;;;;;;5.70;2.78;;;11.60;99.90;;;;;;5123803;27;20027;-46
2023/09/22 07:46:48;;;;;;;5.63;2.60;;;11.60;99.90;;;;;;5128204;27;20027;-43
2023/09/22 07:49:14;;;;;;;4.90;2.80;;;11.70;99.90;;;;;;5130822;27;20445;-56
2023/09/22 07:51:39;;;;;;;4.50;2.58;;;11.70;99.90;;;;;;5129881;27;20023;-54
2023/09/22 07:54:06;;;;;;;4.00;2.40;;;11.90;99.90;;;;;;5120828;27;20017;-50
2023/09/22 07:56:32;;;;;;;4.68;2.72;;;12.10;99.90;;;;;;5131970;27;20039;-45
2023/09/22 07:58:59;;;;;;;5.50;3.17;;;12.30;99.90;;;;;;5129390;27;20019;-54
2023/09/22 08:01:25;;;;;;;5.30;3.00;;;12.40;99.90;;;;;;5126978;27;20066;-48
2023/09/22 08:03:51;;;;;;;6.30;3.03;;;12.40;99.90;;;;;;5125428;27;20471;-44
2023/09/22 08:06:18;;;;;;;5.45;3.03;;;12.50;99.90;;;;;;5119644;27;20031;-43
2023/09/22 08:08:43;;;;;;;6.57;3.08;;;12.60;99.90;;;;;;5123282;27;20094;-45
2023/09/22 08:11:09;;;;;;;5.50;2.83;;;12.80;99.90;;;;;;5112438;27;20023;-45
2023/09/22 08:13:36;;;;;;;7.65;3.25;;;13.00;99.90;;;;;;5117000;27;20030;-46
2023/09/22 08:16:07;;;;;;;7.60;2.90;;;13.30;99.90;;;;;;5120847;27;20044;-52
2023/09/22 08:18:37;;;;;;;4.85;2.85;;;13.50;99.90;;;;;;5112987;27;20035;-50
2023/09/22 08:21:07;;;;;;;5.43;2.95;;;13.80;99.90;;;;;;5117149;27;20023;-45
2023/09/22 08:23:33;;;;;;;5.05;2.33;;;14.10;99.90;;;;;;5117647;27;20123;-44
2023/09/22 08:26:01;;;;;;;5.18;2.50;;;14.40;99.90;;;;;;5111768;27;20494;-45
2023/09/22 08:28:28;;;;;;;3.60;1.98;;;14.60;99.90;;;;;;5116746;27;20028;-44
2023/09/22 08:30:56;;;;;;;5.18;2.38;;;14.70;99.90;;;;;;5111135;27;20061;-46
2023/09/22 08:33:22;;;;;;;5.07;2.20;;;14.80;99.90;;;;;;5110998;28;20020;-42
2023/09/22 08:35:49;;;;;;;2.95;1.63;;;14.60;99.90;;;;;;5116601;27;20023;-48
2023/09/22 08:38:14;;;;;;;3.13;1.55;;;14.80;99.90;;;;;;5131219;27;20038;-41
2023/09/22 08:40:40;;;;;;;2.58;1.52;;;14.60;99.90;;;;;;5127072;27;20438;-46
2023/09/22 08:43:08;;;;;;;5.35;1.45;;;14.60;99.90;;;;;;5127522;27;20394;-52
2023/09/22 08:45:35;;;;;;;4.30;1.88;;;14.50;99.90;;;;;;5126427;27;20215;-51
2023/09/22 08:48:01;;;;;;;3.08;1.70;;;14.40;99.90;;;;;;5122362;27;20019;-53
2023/09/22 08:50:27;;;;;;;5.10;2.10;;;14.40;99.90;;;;;;5098698;28;20065;-55
2023/09/22 08:52:52;;;;;;;4.30;2.22;;;14.60;99.90;;;;;;5110664;28;20038;-48
2023/09/22 08:55:20;;;;;;;6.07;2.35;;;14.80;99.90;;;;;;5129435;27;20110;-56
2023/09/22 08:57:47;;;;;;;5.28;2.40;;;15.10;99.90;;;;;;5112719;28;20042;-47
2023/09/22 09:00:26;;;;;;;4.20;2.00;;;15.50;99.90;;;;;;5110391;28;20020;-55
2023/09/22 09:03:13;;;;;;;3.63;1.73;;;15.80;99.90;;;;;;5110398;28;20024;-50
2023/09/22 09:05:39;;;;;;;7.20;2.42;;;16.30;99.90;;;;;;5103195;27;20042;-48
2023/09/22 09:08:15;;;;;;;7.03;2.30;;;16.70;99.90;;;;;;5121709;27;20080;-44
2023/09/22 09:10:43;;;;;;;7.07;2.08;;;17.00;99.90;;;;;;5117563;27;20034;-52
2023/09/22 09:13:13;;;;;;;3.85;1.73;;;17.30;99.90;;;;;;5114523;27;20015;-57
2023/09/22 09:15:47;;;;;;;3.78;1.95;;;17.40;99.90;;;;;;5119261;28;20118;-53
2023/09/22 09:18:18;;;;;;;3.42;1.80;;;17.40;99.90;;;;;;5123608;27;20034;-50
2023/09/22 09:20:45;;;;;;;3.97;1.95;;;17.60;99.90;;;;;;5111358;27;20051;-57
2023/09/22 09:23:19;;;;;;;2.72;1.55;;;18.00;99.90;;;;;;5111179;27;20028;-54
2023/09/22 09:25:46;;;;;;;5.00;1.95;;;18.60;99.90;;;;;;5109620;28;20034;-51
2023/09/22 09:28:13;;;;;;;3.72;2.30;;;19.10;99.90;;;;;;5110239;28;20495;-49
2023/09/22 09:30:57;;;;;;;2.33;1.50;;;19.50;99.90;;;;;;5123426;27;20206;-51
2023/09/22 09:33:27;;;;;;;2.47;1.38;;;19.70;99.90;;;;;;5127694;27;20057;-52
2023/09/22 09:35:54;;;;;;;3.97;1.80;;;19.90;99.90;;;;;;5120187;28;20030;-46
2023/09/22 09:38:23;;;;;;;5.50;1.85;;;19.90;99.90;;;;;;5113989;27;20035;-54
2023/09/22 09:40:50;;;;;;;2.95;1.58;;;19.90;99.90;;;;;;5137511;27;20038;-54
2023/09/22 09:43:16;;;;;;;2.60;1.45;;;20.00;99.90;;;;;;5120195;27;20110;-44
2023/09/22 09:45:49;;;;;;;2.95;1.40;;;20.50;99.90;;;;;;5137814;27;20114;-46
2023/09/22 09:48:20;;;;;;;4.25;1.70;;;20.40;99.90;;;;;;5124934;27;20019;-44
2023/09/22 09:51:00;;;;;;;3.80;1.30;;;20.80;99.90;;;;;;5123020;27;20051;-53
2023/09/22 09:53:34;;;;;;;2.78;1.50;;;21.20;99.90;;;;;;5125446;27;20031;-57
2023/09/22 09:56:05;;;;;;;1.92;1.25;;;21.30;99.90;;;;;;5118990;28;20499;-52
2023/09/22 09:58:32;;;;;;;2.53;1.35;;;21.30;99.90;;;;;;5118923;28;20034;-51
2023/09/22 10:01:00;;;;;;;2.30;1.25;;;21.10;99.90;;;;;;5104588;28;20019;-52
2023/09/22 10:03:27;;;;;;;2.33;1.17;;;21.00;99.90;;;;;;5097134;27;20095;-43
2023/09/22 10:05:55;;;;;;;3.22;1.35;;;20.90;99.90;;;;;;5114953;27;20029;-49
2023/09/22 10:08:26;;;;;;;2.03;1.13;;;20.70;99.90;;;;;;5126086;27;20023;-49
2023/09/22 10:10:54;;;;;;;2.03;1.08;;;20.40;99.90;;;;;;5111464;28;20110;-50
2023/09/22 10:13:20;;;;;;;2.15;1.15;;;20.30;99.90;;;;;;5112126;28;20015;-43
2023/09/22 10:15:52;;;;;;;3.35;1.23;;;20.50;99.90;;;;;;5113170;28;20027;-48
2023/09/22 10:18:19;;;;;;;2.22;1.15;;;20.40;99.90;;;;;;5125100;27;20102;-48
2023/09/22 10:20:45;;;;;;;4.43;1.73;;;20.20;99.90;;;;;;5113457;28;20039;-53
2023/09/22 10:23:16;;;;;;;2.25;1.30;;;19.80;99.90;;;;;;5113288;28;20027;-56
2023/09/22 10:25:42;;;;;;;1.42;1.00;;;19.60;99.90;;;;;;5112962;27;20118;-47
2023/09/22 10:28:09;;;;;;;2.20;1.15;;;19.30;99.90;;;;;;5112985;28;20556;-47
2023/09/22 10:30:43;;;;;;;4.88;1.42;;;19.20;99.90;;;;;;5119252;27;20034;-46
2023/09/22 10:33:21;;;;;;;1.95;1.20;;;20.00;99.90;;;;;;5115597;27;20031;-55
2023/09/22 10:35:47;;;;;;;3.35;1.15;;;20.50;99.90;;;;;;5126943;27;20011;-49
2023/09/22 10:38:14;;;;;;;3.33;1.10;;;21.00;99.90;;;;;;5113003;27;20027;-47
2023/09/22 10:41:00;;;;;;;2.15;1.20;;;21.00;99.90;;;;;;5112571;27;20036;-55
2023/09/22 10:43:26;;;;;;;1.75;1.02;;;21.40;99.90;;;;;;5119307;27;20020;-46
2023/09/22 10:45:52;;;;;;;1.45;1.00;;;21.70;99.90;;;;;;5112443;27;20495;-41
2023/09/22 10:48:18;;;;;;;3.95;1.10;;;22.00;99.90;;;;;;5121130;27;20019;-58
2023/09/22 10:50:49;;;;;;;2.47;1.20;;;22.30;99.90;;;;;;5130273;27;20106;-51
2023/09/22 10:53:15;;;;;;;2.80;1.48;;;22.20;99.90;;;;;;5113168;27;20109;-48
2023/09/22 10:55:43;;;;;;;2.65;1.00;;;22.70;99.90;;;;;;5112560;28;20039;-53
2023/09/22 10:58:18;;;;;;;1.85;1.10;;;22.70;99.90;;;;;;5112614;28;20084;-48
2023/09/22 11:00:59;;;;;;;4.40;1.10;;;22.80;99.90;;;;;;5112382;28;20047;-50
2023/09/22 11:03:26;;;;;;;2.38;1.00;;;22.80;99.90;;;;;;5112704;27;20035;-50
2023/09/22 11:06:00;;;;;;;1.92;0.93;;;22.80;99.90;;;;;;5112213;28;20023;-45
2023/09/22 11:08:26;;;;;;;1.92;0.90;;;22.80;99.90;;;;;;5112310;27;20026;-43
2023/09/22 11:10:53;;;;;;;2.28;0.80;;;22.80;99.90;;;;;;5112117;28;20040;-43
2023/09/22 11:13:21;;;;;;;2.30;0.88;;;22.60;99.90;;;;;;5117370;27;20506;-46
2023/09/22 11:15:49;;;;;;;1.30;0.88;;;22.70;99.90;;;;;;5110045;27;20031;-48
2023/09/22 11:18:21;;;;;;;2.38;0.75;;;22.80;99.90;;;;;;5125482;27;20049;-47
2023/09/22 11:20:46;;;;;;;2.63;0.93;;;23.10;99.90;;;;;;5099940;27;20102;-43
2023/09/22 11:23:12;;;;;;;1.98;1.00;;;22.80;99.90;;;;;;5120220;27;20122;-45
2023/09/22 11:25:38;;;;;;;2.38;0.85;;;23.00;99.90;;;;;;5116585;27;20056;-46
2023/09/22 11:28:04;;;;;;;1.60;0.70;;;23.20;99.90;;;;;;5114425;27;20027;-50
2023/09/22 11:30:33;;;;;;;1.55;0.80;;;22.40;99.90;;;;;;5121653;27;20023;-55
2023/09/22 11:32:59;;;;;;;2.67;1.52;;;21.80;99.90;;;;;;5119798;27;20103;-51
2023/09/22 11:35:41;;;;;;;1.27;0.80;;;21.50;99.90;;;;;;5116869;27;20051;-53
2023/09/22 11:38:29;;;;;;;3.72;1.00;;;21.60;99.90;;;;;;5115377;27;20032;-49
2023/09/22 11:41:13;;;;;;;1.30;0.70;;;21.70;99.90;;;;;;5113307;27;20059;-53
2023/09/22 11:43:46;;;;;;;2.05;0.85;;;21.60;99.90;;;;;;5124459;27;20290;-45
2023/09/22 11:46:14;;;;;;;0.75;0.50;;;21.40;99.90;;;;;;5114838;27;20024;-42
2023/09/22 11:48:57;;;;;;;1.50;0.60;;;21.70;99.90;;;;;;5117642;27;20080;-41
2023/09/22 11:51:51;;;;;;;0.85;0.60;;;22.10;99.90;;;;;;5120005;27;20038;-41
2023/09/22 11:54:20;;;;;;;1.38;0.50;;;22.20;99.90;;;;;;5124137;27;20011;-40
2023/09/22 11:56:48;;;;;;;0.45;0.35;;;22.30;99.90;;;;;;5119421;27;20075;-49
2023/09/22 11:59:19;;;;;;;1.02;0.50;;;22.40;99.90;;;;;;5128098;27;20134;-51
2023/09/22 12:01:46;;;;;;;1.75;0.73;;;22.60;99.90;;;;;;5113533;27;20054;-54
2023/09/22 12:04:13;;;;;;;1.10;0.45;;;22.80;99.90;;;;;;5111839;27;20399;-48
2023/09/22 12:06:40;;;;;;;1.17;0.50;;;22.80;99.90;;;;;;5114922;27;20571;-46
2023/09/22 12:09:15;;;;;;;0.70;0.50;;;22.70;99.90;;;;;;5126792;27;20037;-49
2023/09/22 12:11:42;;;;;;;0.35;0.35;;;22.40;99.90;;;;;;5123324;27;20020;-48
2023/09/22 12:14:10;;;;;;;1.20;0.68;;;21.80;99.90;;;;;;5120232;27;20043;-46
2023/09/22 12:16:35;;;;;;;2.03;0.50;;;21.10;99.90;;;;;;5121053;27;20035;-53
2023/09/22 12:19:01;;;;;;;0.93;0.63;;;21.30;99.90;;;;;;5111092;28;20077;-46
2023/09/22 12:21:28;;;;;;;1.80;0.50;;;21.60;99.90;;;;;;5117391;27;20116;-56
2023/09/22 12:23:54;;;;;;;1.08;0.52;;;21.70;99.90;;;;;;5126749;27;20056;-53
2023/09/22 12:26:20;;;;;;;0.77;0.47;;;21.70;99.90;;;;;;5122220;27;20054;-51
2023/09/22 12:28:49;;;;;;;1.00;0.70;;;21.60;99.90;;;;;;5121476;27;20028;-53
2023/09/22 12:31:18;;;;;;;1.60;0.60;;;21.70;99.90;;;;;;5119971;27;20031;-57
2023/09/22 12:33:45;;;;;;;2.03;0.68;;;21.60;99.90;;;;;;5125250;27;20019;-58
2023/09/22 12:36:15;;;;;;;3.00;0.60;;;21.70;99.90;;;;;;5122936;27;20376;-45
2023/09/22 12:38:44;;;;;;;1.55;0.60;;;21.70;99.90;;;;;;5117607;27;20039;-49
2023/09/22 12:41:10;;;;;;;1.92;0.88;;;21.70;99.90;;;;;;5125328;27;20035;-47
2023/09/22 12:43:36;;;;;;;1.85;0.55;;;21.70;99.90;;;;;;5098703;28;20023;-47
2023/09/22 12:46:07;;;;;;;1.30;0.70;;;21.60;99.90;;;;;;5108929;28;20106;-52
2023/09/22 12:48:33;;;;;;;3.03;0.95;;;21.60;99.90;;;;;;5110236;28;20436;-46
2023/09/22 12:50:58;;;;;;;0.98;0.70;;;21.50;99.90;;;;;;5121782;27;20069;-49
2023/09/22 12:53:25;;;;;;;0.40;0.40;;;21.50;99.90;;;;;;5117113;27;20096;-54
2023/09/22 12:55:57;;;;;;;1.25;0.60;;;21.40;99.90;;;;;;5113634;27;20108;-48
2023/09/22 12:58:27;;;;;;;1.10;0.60;;;21.30;99.90;;;;;;5124566;27;20431;-39
2023/09/22 13:00:57;;;;;;;2.03;0.65;;;21.20;99.90;;;;;;5125720;27;20030;-40